Terminal Aerodrome Forecast
Issued by NWS Kansas City/Pleasant Hill, MO

Home | Current Version | Previous Version | Text Only | Print | Product List | Glossary On
Versions: 1 2 3 4 5 6 7 8 9 10 11 12 13 14 15 16 17 18 19 20
000
FTUS43 KEAX 161521 AAC
TAFMCI
TAF AMD
KMCI 161521Z 1615/1712 16011KT P6SM SCT025 BKN070
      TEMPO 1615/1617 2SM -TSRA OVC015CB
     FM162000 19009KT P6SM VCTS BKN060CB
      TEMPO 1621/1624 2SM TSRA BKN035CB
     FM170700 23006KT P6SM BKN015=

USA.gov is the U.S. government's official web portal to all federal, state and local government web resources and services.